createdAt,value
2023-04-21T00:01:42.994Z,8.60
2023-04-21T00:04:13.926Z,8.60
2023-04-21T00:06:42.705Z,8.60
2023-04-21T00:09:11.111Z,8.60
2023-04-21T00:11:39.165Z,8.50
2023-04-21T00:14:07.183Z,8.50
2023-04-21T00:16:36.548Z,8.60
2023-04-21T00:19:06.892Z,8.50
2023-04-21T00:21:35.049Z,8.50
2023-04-21T00:24:03.048Z,8.50
2023-04-21T00:26:31.053Z,8.50
2023-04-21T00:28:59.084Z,8.40
2023-04-21T00:31:27.182Z,8.40
2023-04-21T00:33:56.767Z,8.40
2023-04-21T00:36:28.087Z,8.50
2023-04-21T00:38:56.128Z,8.50
2023-04-21T00:41:24.706Z,8.40
2023-04-21T00:44:02.441Z,8.50
2023-04-21T00:46:30.654Z,8.40
2023-04-21T00:49:00.412Z,8.40
2023-04-21T00:51:29.965Z,8.40
2023-04-21T00:53:58.321Z,8.40
2023-04-21T00:56:27.230Z,8.40
2023-04-21T00:58:56.480Z,8.40
2023-04-21T01:01:24.648Z,8.40
2023-04-21T01:03:53.105Z,8.40
2023-04-21T01:06:22.558Z,8.30
2023-04-21T01:08:52.952Z,8.30
2023-04-21T01:11:21.610Z,8.30
2023-04-21T01:13:49.605Z,8.20
2023-04-21T01:16:18.599Z,8.20
2023-04-21T01:18:46.908Z,8.20
2023-04-21T01:21:15.338Z,8.10
2023-04-21T01:23:44.812Z,8.10
2023-04-21T01:26:13.143Z,8.10
2023-04-21T01:28:41.303Z,8.10
2023-04-21T01:31:09.288Z,8.10
2023-04-21T01:33:37.300Z,8.10
2023-04-21T01:36:05.846Z,8.10
2023-04-21T01:38:33.856Z,8.10
2023-04-21T01:41:03.594Z,8.20
2023-04-21T01:43:31.657Z,8.20
2023-04-21T01:45:59.775Z,8.30
2023-04-21T01:48:27.832Z,8.40
2023-04-21T01:50:55.809Z,8.50
2023-04-21T01:53:23.860Z,8.50
2023-04-21T01:55:52.038Z,8.60
2023-04-21T01:58:21.540Z,8.70
2023-04-21T02:00:49.578Z,8.80
2023-04-21T02:03:17.720Z,8.80
2023-04-21T02:05:45.905Z,8.90
2023-04-21T02:08:14.040Z,8.90
2023-04-21T02:10:42.053Z,9.10
2023-04-21T02:13:10.144Z,9.00
2023-04-21T02:15:40.082Z,9.00
2023-04-21T02:18:08.320Z,9.00
2023-04-21T02:20:36.414Z,8.90
2023-04-21T02:23:04.405Z,8.90
2023-04-21T02:25:32.600Z,8.80
2023-04-21T02:28:00.642Z,8.80
2023-04-21T02:30:28.981Z,8.80
2023-04-21T02:32:58.514Z,8.80
2023-04-21T02:35:27.191Z,8.80
2023-04-21T02:37:55.258Z,8.70
2023-04-21T02:40:23.343Z,8.70
2023-04-21T02:42:51.344Z,8.70
2023-04-21T02:45:19.385Z,8.70
2023-04-21T02:47:48.582Z,8.70
2023-04-21T02:50:18.145Z,8.60
2023-04-21T02:52:46.310Z,8.70
2023-04-21T02:55:14.268Z,8.70
2023-04-21T02:57:42.327Z,8.70
2023-04-21T03:00:12.619Z,8.70
2023-04-21T03:02:40.778Z,8.60
2023-04-21T03:05:09.454Z,8.60
2023-04-21T03:07:38.751Z,8.60
2023-04-21T03:10:07.493Z,8.60
2023-04-21T03:12:35.522Z,8.50
2023-04-21T03:15:03.594Z,8.50
2023-04-21T03:17:33.217Z,8.40
2023-04-21T03:20:01.510Z,8.40
2023-04-21T03:22:29.541Z,8.40
2023-04-21T03:24:59.012Z,8.40
2023-04-21T03:27:27.095Z,8.40
2023-04-21T03:29:55.047Z,8.40
2023-04-21T03:32:23.421Z,8.40
2023-04-21T03:34:51.491Z,8.40
2023-04-21T03:37:19.523Z,8.50
2023-04-21T03:39:47.567Z,8.40
2023-04-21T03:42:17.077Z,8.40
2023-04-21T03:44:45.097Z,8.40
2023-04-21T03:47:13.057Z,8.40
2023-04-21T03:49:41.118Z,8.30
2023-04-21T03:52:09.202Z,8.30
2023-04-21T03:54:37.249Z,8.30
2023-04-21T03:57:05.419Z,8.30
2023-04-21T03:59:34.738Z,8.20
2023-04-21T04:02:02.842Z,8.20
2023-04-21T04:04:31.049Z,8.20
2023-04-21T04:06:59.262Z,8.10
2023-04-21T04:09:27.238Z,8.00
2023-04-21T04:11:55.205Z,8.00
2023-04-21T04:14:23.181Z,7.90
2023-04-21T04:16:52.502Z,7.90
2023-04-21T04:19:20.691Z,7.80
2023-04-21T04:21:49.237Z,7.80
2023-04-21T04:24:17.325Z,7.80
2023-04-21T04:26:45.405Z,7.70
2023-04-21T04:29:14.043Z,7.70
2023-04-21T04:31:42.263Z,7.70
2023-04-21T04:34:11.773Z,7.70
2023-04-21T04:36:39.907Z,7.70
2023-04-21T04:39:09.566Z,7.70
2023-04-21T04:41:38.065Z,7.70
2023-04-21T04:44:06.248Z,7.80
2023-04-21T04:46:34.501Z,7.80
2023-04-21T04:49:02.693Z,7.80
2023-04-21T04:51:32.612Z,7.80
2023-04-21T04:54:01.054Z,7.80
2023-04-21T04:56:31.070Z,7.80
2023-04-21T04:59:01.268Z,7.80
2023-04-21T05:01:30.770Z,7.80
2023-04-21T05:03:59.273Z,7.90
2023-04-21T05:06:28.484Z,7.90
2023-04-21T05:08:57.821Z,8.00
2023-04-21T05:11:25.890Z,8.00
2023-04-21T05:13:54.091Z,8.10
2023-04-21T05:16:22.189Z,8.20
2023-04-21T05:18:53.974Z,8.30
2023-04-21T05:21:27.567Z,8.50
2023-04-21T05:23:57.514Z,8.70
2023-04-21T05:26:27.298Z,8.90
2023-04-21T05:28:55.923Z,9.20
2023-04-21T05:31:24.050Z,9.40
2023-04-21T05:33:52.283Z,9.70
2023-04-21T05:36:21.046Z,9.90
2023-04-21T05:38:49.078Z,10.20
2023-04-21T05:41:18.783Z,10.40
2023-04-21T05:43:47.577Z,10.50
2023-04-21T05:46:15.724Z,10.70
2023-04-21T05:48:43.784Z,10.80
2023-04-21T05:51:12.957Z,10.90
2023-04-21T05:53:41.323Z,11.00
2023-04-21T05:56:10.630Z,11.10
2023-04-21T05:58:40.735Z,11.20
2023-04-21T06:01:08.756Z,11.40
2023-04-21T06:03:36.838Z,11.40
2023-04-21T06:06:06.321Z,11.60
2023-04-21T06:08:34.505Z,11.80
2023-04-21T06:11:02.677Z,12.00
2023-04-21T06:13:30.672Z,11.90
2023-04-21T06:16:00.237Z,12.00
2023-04-21T06:18:28.790Z,12.00
2023-04-21T06:20:57.360Z,11.80
2023-04-21T06:23:25.413Z,11.70
2023-04-21T06:26:04.972Z,11.60
2023-04-21T06:28:33.409Z,11.50
2023-04-21T06:31:04.904Z,11.70
2023-04-21T06:33:35.092Z,11.70
2023-04-21T06:36:03.038Z,11.80
2023-04-21T06:38:30.980Z,12.00
2023-04-21T06:40:59.012Z,12.10
2023-04-21T06:43:27.187Z,12.50
2023-04-21T06:45:55.159Z,12.80
2023-04-21T06:48:24.483Z,13.20
2023-04-21T06:50:52.986Z,12.90
2023-04-21T06:53:21.746Z,12.70
2023-04-21T06:55:50.207Z,12.50
2023-04-21T06:58:20.661Z,12.40
2023-04-21T07:00:49.467Z,12.60
2023-04-21T07:03:17.718Z,12.90
2023-04-21T07:05:47.397Z,13.40
2023-04-21T07:08:15.420Z,13.60
2023-04-21T07:10:43.456Z,14.00
2023-04-21T07:13:11.580Z,14.30
2023-04-21T07:15:39.622Z,14.40
2023-04-21T07:18:07.825Z,14.30
2023-04-21T07:20:36.130Z,14.20
2023-04-21T07:23:05.470Z,14.30
2023-04-21T07:25:33.619Z,14.30
2023-04-21T07:28:02.891Z,14.40
2023-04-21T07:30:31.230Z,14.60
2023-04-21T07:32:59.349Z,14.70
2023-04-21T07:35:27.964Z,14.90
2023-04-21T07:37:56.173Z,15.20
2023-04-21T07:40:25.718Z,15.50
2023-04-21T07:42:53.705Z,15.70
2023-04-21T07:45:21.664Z,15.70
2023-04-21T07:47:49.993Z,15.80
2023-04-21T07:50:18.121Z,15.70
2023-04-21T07:52:47.975Z,15.80
2023-04-21T07:55:16.092Z,15.50
2023-04-21T07:57:45.362Z,16.00
2023-04-21T08:00:14.640Z,15.90
2023-04-21T08:02:42.832Z,16.00
2023-04-21T08:05:11.321Z,15.80
2023-04-21T08:07:39.972Z,16.20
2023-04-21T08:10:09.645Z,16.10
2023-04-21T08:12:37.637Z,15.80
2023-04-21T08:17:55.045Z,15.80
2023-04-21T08:20:23.162Z,15.40
2023-04-21T08:22:52.413Z,15.40
2023-04-21T08:25:20.916Z,15.20
2023-04-21T08:27:49.026Z,15.30
2023-04-21T08:30:18.524Z,15.10
2023-04-21T08:32:46.712Z,15.10
2023-04-21T08:35:14.818Z,15.00
2023-04-21T08:37:42.838Z,15.10
2023-04-21T08:40:11.385Z,15.40
2023-04-21T08:42:39.726Z,15.50
2023-04-21T08:45:08.956Z,15.60
2023-04-21T08:47:41.610Z,15.80
2023-04-21T08:50:14.691Z,16.00
2023-04-21T08:52:42.692Z,15.90
2023-04-21T08:55:12.958Z,15.80
2023-04-21T08:57:41.044Z,15.70
2023-04-21T09:00:10.274Z,15.90
2023-04-21T09:03:01.154Z,15.90
2023-04-21T09:05:31.640Z,15.80
2023-04-21T09:08:10.282Z,15.80
2023-04-21T09:10:45.033Z,15.70
2023-04-21T09:13:13.069Z,15.70
2023-04-21T09:15:41.653Z,15.90
2023-04-21T09:18:15.029Z,16.00
2023-04-21T09:20:44.285Z,16.40
2023-04-21T09:23:12.786Z,17.00
2023-04-21T09:25:42.199Z,17.40
2023-04-21T09:28:10.839Z,17.50
2023-04-21T09:30:40.129Z,17.80
2023-04-21T09:33:20.148Z,17.50
2023-04-21T09:35:54.414Z,17.20
2023-04-21T09:38:23.811Z,17.30
2023-04-21T09:40:58.845Z,17.40
2023-04-21T09:43:27.087Z,17.40
2023-04-21T09:45:57.107Z,17.40
2023-04-21T09:48:29.539Z,17.60
2023-04-21T09:53:34.036Z,18.20
2023-04-21T09:56:03.517Z,18.60
2023-04-21T09:58:39.868Z,18.70
2023-04-21T10:01:08.798Z,18.80
2023-04-21T10:03:39.845Z,19.00
2023-04-21T10:06:09.915Z,19.20
2023-04-21T10:08:38.437Z,19.40
2023-04-21T10:11:07.430Z,19.60
2023-04-21T10:13:36.571Z,19.40
2023-04-21T10:16:07.571Z,19.70
2023-04-21T10:18:38.313Z,19.50
2023-04-21T10:21:10.005Z,19.30
2023-04-21T10:23:39.298Z,19.70
2023-04-21T10:26:10.489Z,20.00
2023-04-21T10:28:47.160Z,20.00
2023-04-21T10:31:29.677Z,20.20
2023-04-21T10:34:19.287Z,20.10
2023-04-21T10:37:17.239Z,20.40
2023-04-21T10:39:57.952Z,20.80
2023-04-21T10:42:36.943Z,20.80
2023-04-21T10:45:13.165Z,20.60
2023-04-21T10:47:49.031Z,20.50
2023-04-21T10:50:20.375Z,20.80
2023-04-21T10:52:55.182Z,20.60
2023-04-21T10:55:24.031Z,20.20
2023-04-21T10:57:51.996Z,20.10
2023-04-21T11:00:22.898Z,20.20
2023-04-21T11:03:00.177Z,20.10
2023-04-21T11:05:34.632Z,20.20
2023-04-21T11:08:12.435Z,19.90
2023-04-21T11:10:48.684Z,20.00
2023-04-21T11:13:16.687Z,20.10
2023-04-21T11:16:01.476Z,20.20
2023-04-21T11:18:43.114Z,20.30
2023-04-21T11:21:13.604Z,20.50
2023-04-21T11:23:43.438Z,20.50
2023-04-21T11:26:11.388Z,20.40
2023-04-21T11:28:41.803Z,20.50
2023-04-21T11:31:09.857Z,20.30
2023-04-21T11:33:39.003Z,20.30
2023-04-21T11:36:07.810Z,20.20
2023-04-21T11:38:41.110Z,20.30
2023-04-21T11:41:11.186Z,20.50
2023-04-21T11:43:39.573Z,20.70
2023-04-21T11:46:15.074Z,20.70
2023-04-21T11:48:44.599Z,20.80
2023-04-21T11:51:21.526Z,21.00
2023-04-21T11:53:50.514Z,21.20
2023-04-21T11:56:21.695Z,21.40
2023-04-21T11:58:52.136Z,21.90
2023-04-21T12:01:22.630Z,22.00
2023-04-21T12:03:55.198Z,22.20
2023-04-21T12:06:24.642Z,21.90
2023-04-21T12:08:58.018Z,21.90
2023-04-21T12:11:29.106Z,21.80
2023-04-21T12:13:58.528Z,22.10
2023-04-21T12:16:28.408Z,22.20
2023-04-21T12:18:57.620Z,22.20
2023-04-21T12:21:29.302Z,22.30
2023-04-21T12:23:57.902Z,22.70
2023-04-21T12:26:27.340Z,22.70
2023-04-21T12:28:56.160Z,22.60
2023-04-21T12:31:24.154Z,22.50
2023-04-21T12:33:52.205Z,22.20
2023-04-21T12:36:20.270Z,22.40
2023-04-21T12:38:48.257Z,22.60
2023-04-21T12:41:16.299Z,22.70
2023-04-21T12:43:45.887Z,22.60
2023-04-21T12:46:14.008Z,22.50
2023-04-21T12:48:42.229Z,22.50
2023-04-21T12:51:10.337Z,22.40
2023-04-21T12:53:38.354Z,22.30
2023-04-21T12:56:06.945Z,22.20
2023-04-21T12:58:34.944Z,22.60
2023-04-21T13:01:04.482Z,22.90
2023-04-21T13:03:32.736Z,23.00
2023-04-21T13:06:00.980Z,22.80
2023-04-21T13:08:28.919Z,22.40
2023-04-21T13:10:56.948Z,22.20
2023-04-21T13:13:24.885Z,22.00
2023-04-21T13:15:52.925Z,21.90
2023-04-21T13:18:22.404Z,21.90
2023-04-21T13:20:50.552Z,22.00
2023-04-21T13:23:18.617Z,22.20
2023-04-21T13:25:46.637Z,22.30
2023-04-21T13:28:15.061Z,22.00
2023-04-21T13:30:43.204Z,22.00
2023-04-21T13:33:11.455Z,21.90
2023-04-21T13:35:40.917Z,21.70
2023-04-21T13:38:08.919Z,21.60
2023-04-21T13:40:37.202Z,21.50
2023-04-21T13:43:05.824Z,21.50
2023-04-21T13:45:33.855Z,21.40
2023-04-21T13:48:02.046Z,21.30
2023-04-21T13:50:30.076Z,21.30
2023-04-21T13:52:59.611Z,21.20
2023-04-21T13:55:27.836Z,21.20
2023-04-21T13:57:55.938Z,21.30
2023-04-21T14:00:24.276Z,21.20
2023-04-21T14:02:52.556Z,21.20
2023-04-21T14:05:21.196Z,21.30
2023-04-21T14:07:49.364Z,21.20
2023-04-21T14:10:18.828Z,21.20
2023-04-21T14:12:49.027Z,21.60
2023-04-21T14:15:17.421Z,22.00
2023-04-21T14:17:45.795Z,22.40
2023-04-21T14:20:13.975Z,22.30
2023-04-21T14:22:42.110Z,22.10
2023-04-21T14:25:10.573Z,22.00
2023-04-21T14:27:40.499Z,22.00
2023-04-21T14:30:10.570Z,22.00
2023-04-21T14:32:44.546Z,22.60
2023-04-21T14:35:12.811Z,23.00
2023-04-21T14:37:41.719Z,23.10
2023-04-21T14:40:10.667Z,23.50
2023-04-21T14:42:41.505Z,23.80
2023-04-21T14:45:10.687Z,24.00
2023-04-21T14:47:39.052Z,23.80
2023-04-21T14:50:08.206Z,23.60
2023-04-21T14:52:36.226Z,23.30
2023-04-21T14:55:04.744Z,23.20
2023-04-21T14:57:32.833Z,22.70
2023-04-21T15:00:02.236Z,22.60
2023-04-21T15:02:31.310Z,22.50
2023-04-21T15:04:59.542Z,22.70
2023-04-21T15:07:27.825Z,23.10
2023-04-21T15:09:55.757Z,23.10
2023-04-21T15:12:23.922Z,23.00
2023-04-21T15:14:51.970Z,22.70
2023-04-21T15:17:21.589Z,22.40
2023-04-21T15:19:49.693Z,22.30
2023-04-21T15:22:17.709Z,22.10
2023-04-21T15:24:46.432Z,22.50
2023-04-21T15:27:14.378Z,22.50
2023-04-21T15:29:42.464Z,22.60
2023-04-21T15:32:10.627Z,22.50
2023-04-21T15:34:40.037Z,22.40
2023-04-21T15:37:08.049Z,22.50
2023-04-21T15:39:36.255Z,22.70
2023-04-21T15:42:04.989Z,22.40
2023-04-21T15:44:33.952Z,22.20
2023-04-21T15:47:02.257Z,21.80
2023-04-21T15:49:30.653Z,21.40
2023-04-21T15:52:00.146Z,21.10
2023-04-21T15:54:28.256Z,20.80
2023-04-21T15:56:57.603Z,20.60
2023-04-21T15:59:26.349Z,20.50
2023-04-21T16:01:54.725Z,20.70
2023-04-21T16:04:22.988Z,20.60
2023-04-21T16:06:51.740Z,20.60
2023-04-21T16:09:22.148Z,20.50
2023-04-21T16:11:51.509Z,20.40
2023-04-21T16:14:20.139Z,20.30
2023-04-21T16:16:48.323Z,20.10
2023-04-21T16:19:16.488Z,20.00
2023-04-21T16:21:44.806Z,19.90
2023-04-21T16:24:13.046Z,19.90
2023-04-21T16:26:42.660Z,19.90
2023-04-21T16:29:10.670Z,19.80
2023-04-21T16:31:38.842Z,19.70
2023-04-21T16:34:07.020Z,19.70
2023-04-21T16:36:35.363Z,19.70
2023-04-21T16:39:04.937Z,19.60
2023-04-21T16:41:32.975Z,19.60
2023-04-21T16:44:02.293Z,19.50
2023-04-21T16:46:30.480Z,19.50
2023-04-21T16:48:58.531Z,19.40
2023-04-21T16:51:28.478Z,19.40
2023-04-21T16:53:56.612Z,19.50
2023-04-21T16:56:24.789Z,19.40
2023-04-21T16:58:53.779Z,19.40
2023-04-21T17:01:23.221Z,19.40
2023-04-21T17:03:51.353Z,19.40
2023-04-21T17:06:20.981Z,19.30
2023-04-21T17:08:49.295Z,19.40
2023-04-21T17:11:17.298Z,19.40
2023-04-21T17:13:45.318Z,19.40
2023-04-21T17:16:13.447Z,19.40
2023-04-21T17:18:42.964Z,19.50
2023-04-21T17:21:12.459Z,19.50
2023-04-21T17:23:40.874Z,19.50
2023-04-21T17:26:11.561Z,19.50
2023-04-21T17:28:41.465Z,19.50
2023-04-21T17:31:15.716Z,19.40
2023-04-21T17:33:46.206Z,19.40
2023-04-21T17:36:14.256Z,19.40
2023-04-21T17:38:43.151Z,19.30
2023-04-21T17:41:11.530Z,19.30
2023-04-21T17:43:39.600Z,19.20
2023-04-21T17:46:07.965Z,19.10
2023-04-21T17:48:36.164Z,19.00
2023-04-21T17:51:05.617Z,19.00
2023-04-21T17:53:34.143Z,18.90
2023-04-21T17:56:02.341Z,18.90
2023-04-21T17:58:30.412Z,18.80
2023-04-21T18:00:58.368Z,18.70
2023-04-21T18:03:27.373Z,18.60
2023-04-21T18:05:55.765Z,18.60
2023-04-21T18:08:25.650Z,18.50
2023-04-21T18:10:54.989Z,18.40
2023-04-21T18:13:23.028Z,18.40
2023-04-21T18:15:51.135Z,18.30
2023-04-21T18:18:19.089Z,18.30
2023-04-21T18:20:47.345Z,18.20
2023-04-21T18:23:15.390Z,18.20
2023-04-21T18:25:44.959Z,18.10
2023-04-21T18:28:13.257Z,18.00
2023-04-21T18:30:41.579Z,18.00
2023-04-21T18:33:10.105Z,17.90
2023-04-21T18:35:38.255Z,17.90
2023-04-21T18:38:08.012Z,17.80
2023-04-21T18:40:37.406Z,17.80
2023-04-21T18:43:06.995Z,17.70
2023-04-21T18:45:35.001Z,17.60
2023-04-21T18:48:03.040Z,17.50
2023-04-21T18:50:32.341Z,17.40
2023-04-21T18:53:00.350Z,17.30
2023-04-21T18:55:28.365Z,17.20
2023-04-21T18:57:56.430Z,17.10
2023-04-21T19:00:25.829Z,17.00
2023-04-21T19:02:54.033Z,17.00
2023-04-21T19:05:22.148Z,16.90
2023-04-21T19:07:50.114Z,16.80
2023-04-21T19:10:18.519Z,16.80
2023-04-21T19:12:46.490Z,16.70
2023-04-21T19:15:14.508Z,16.60
2023-04-21T19:17:43.880Z,16.60
2023-04-21T19:20:13.408Z,16.60
2023-04-21T19:22:41.405Z,16.50
2023-04-21T19:25:10.110Z,16.40
2023-04-21T19:27:38.154Z,16.40
2023-04-21T19:30:07.112Z,16.30
2023-04-21T19:32:35.119Z,16.30
2023-04-21T19:35:05.271Z,16.20
2023-04-21T19:37:35.150Z,16.10
2023-04-21T19:40:03.596Z,16.00
2023-04-21T19:42:31.911Z,16.00
2023-04-21T19:44:59.866Z,15.90
2023-04-21T19:47:28.364Z,15.90
2023-04-21T19:49:56.542Z,15.80
2023-04-21T19:52:25.983Z,15.80
2023-04-21T19:54:53.986Z,15.70
2023-04-21T19:57:21.972Z,15.70
2023-04-21T19:59:50.002Z,15.60
2023-04-21T20:02:18.088Z,15.50
2023-04-21T20:04:46.219Z,15.50
2023-04-21T20:07:14.353Z,15.40
2023-04-21T20:09:43.783Z,15.40
2023-04-21T20:12:11.868Z,15.40
2023-04-21T20:14:39.884Z,15.30
2023-04-21T20:17:08.172Z,15.30
2023-04-21T20:19:40.344Z,15.30
2023-04-21T20:22:08.657Z,15.30
2023-04-21T20:24:36.608Z,15.40
2023-04-21T20:27:08.623Z,15.40
2023-04-21T20:29:37.348Z,15.40
2023-04-21T20:32:05.758Z,15.40
2023-04-21T20:34:33.782Z,15.30
2023-04-21T20:37:01.797Z,15.30
2023-04-21T20:39:30.234Z,15.30
2023-04-21T20:42:11.918Z,15.30
2023-04-21T20:44:43.398Z,15.30
2023-04-21T20:47:12.750Z,15.20
2023-04-21T20:49:42.524Z,15.20
2023-04-21T20:52:11.139Z,15.20
2023-04-21T20:54:39.178Z,15.10
2023-04-21T20:57:10.260Z,15.10
2023-04-21T20:59:38.699Z,15.00
2023-04-21T21:02:08.766Z,15.00
2023-04-21T21:04:36.896Z,15.10
2023-04-21T21:07:05.302Z,15.10
2023-04-21T21:09:33.403Z,15.10
2023-04-21T21:12:02.397Z,15.20
2023-04-21T21:14:30.684Z,15.20
2023-04-21T21:16:58.795Z,15.20
2023-04-21T21:19:28.346Z,15.10
2023-04-21T21:21:56.563Z,15.20
2023-04-21T21:24:26.283Z,15.20
2023-04-21T21:26:54.510Z,15.20
2023-04-21T21:29:22.548Z,15.10
2023-04-21T21:31:50.709Z,15.10
2023-04-21T21:34:18.833Z,15.10
2023-04-21T21:36:48.438Z,15.00
2023-04-21T21:39:16.456Z,14.90
2023-04-21T21:41:44.405Z,14.80
2023-04-21T21:44:12.793Z,14.80
2023-04-21T21:46:43.736Z,14.80
2023-04-21T21:49:12.125Z,14.70
2023-04-21T21:51:41.385Z,14.70
2023-04-21T21:54:10.990Z,14.60
2023-04-21T21:56:53.034Z,14.60
2023-04-21T21:59:21.700Z,14.70
2023-04-21T22:01:49.858Z,14.70
2023-04-21T22:04:18.236Z,14.60
2023-04-21T22:06:46.397Z,14.70
2023-04-21T22:09:15.845Z,14.80
2023-04-21T22:11:43.834Z,15.00
2023-04-21T22:14:22.890Z,15.20
2023-04-21T22:16:52.593Z,15.20
2023-04-21T22:19:21.067Z,15.20
2023-04-21T22:21:49.465Z,15.10
2023-04-21T22:24:21.024Z,15.10
2023-04-21T22:26:49.296Z,15.00
2023-04-21T22:29:17.819Z,14.90
2023-04-21T22:31:46.048Z,14.90
2023-04-21T22:34:15.038Z,14.70
2023-04-21T22:36:43.287Z,14.60
2023-04-21T22:39:11.195Z,14.50
2023-04-21T22:41:40.711Z,14.40
2023-04-21T22:44:08.650Z,14.30
2023-04-21T22:46:36.763Z,14.20
2023-04-21T22:49:05.124Z,14.00
2023-04-21T22:51:33.221Z,13.90
2023-04-21T22:54:01.766Z,13.80
2023-04-21T22:56:30.817Z,13.80
2023-04-21T22:59:00.361Z,13.60
2023-04-21T23:01:29.234Z,13.60
2023-04-21T23:03:57.450Z,13.50
2023-04-21T23:06:25.638Z,13.40
2023-04-21T23:08:53.667Z,13.30
2023-04-21T23:11:21.642Z,13.20
2023-04-21T23:13:49.604Z,13.00
2023-04-21T23:16:18.945Z,12.90
2023-04-21T23:18:46.930Z,12.80
2023-04-21T23:21:15.024Z,12.80
2023-04-21T23:23:43.099Z,12.70
2023-04-21T23:26:11.047Z,12.60
2023-04-21T23:28:38.999Z,12.50
2023-04-21T23:31:07.114Z,12.40
2023-04-21T23:33:36.572Z,12.30
2023-04-21T23:36:04.624Z,12.20
2023-04-21T23:38:32.575Z,12.10
2023-04-21T23:41:00.829Z,12.10
2023-04-21T23:43:29.258Z,12.00
2023-04-21T23:45:57.221Z,11.90
2023-04-21T23:48:25.169Z,11.80
2023-04-21T23:50:54.881Z,11.70
2023-04-21T23:53:22.819Z,11.60
2023-04-21T23:55:50.740Z,11.60
2023-04-21T23:58:18.692Z,11.40
